Swift Current Airport
CYYN : rendu visible

Aérodrome :











RETROUVEZ-NOUS SUR...

 
LOGIN :

S'inscrire | Disclaimer

   EN    FR    IT 

 









Légende :    VFR   VFR Marginal   IFR   IFR Intensif   IFR Très Intensif
Visi : 
Plafond : 
>= 8 km
>= 3000ft
5 à 8 km
1000 à 3000 ft
1500m à 5 km
500 à 1000 ft
800 à 1500m
200 à 500 ft
< 800m
< 200 ft
Symboles :   Orages  Brouillard  Fortes neiges  Fortes précipitations  Vent > 20 kt






- Altitude de l'aérodrome : 2680 ft
- Code IATA : YYN


CYYN - Swift Current

DERNIER METAR :
  • 042100Z AUTO 29021G29KT 9SM BKN095 19/M04 A2984 RMK SLP111 DENSITY ALT 3800FT

METARs EXPIRÉS :
  • 042000Z AUTO 31024G30KT 9SM BKN085 19/M03 A2983 RMK SLP107 DENSITY ALT 3800FT
  • 041900Z AUTO 30020G25KT 9SM FEW080 19/M01 A2983 RMK SLP106 DENSITY ALT 3800FT

TAF TAF CYYN
Valide du 04 à 18h jusqu'au 05 à 06h UTC


041746Z 0418/0506 29025G35KT P6SM SCT080
BECMG 0503/0505 25012KT RMK FCST BASED ON AUTO OBS. NXT FCST BY 050000Z
FIR CZWG / Amérique du Nord



MET'MAP, la Météo Aéronautique d'un coup d'oeil ! - Copyright ORBIFLY Décembre 2007 - Disclaimer

ORBIFLY MET'MAP TEAM :

Programmation & Développement : Alexandra Zaïnal
Sur une idée originale de : Baudouin d'Aumeries
Assistance à la programmation : Marc-Olivier Méhu
Soutien technique & logistique : Manuel Goepfert

Contact : metmap@orbifly.com




SOURCES & CREDITS :

   NOAA       Earth
Advisory